createdAt,value
2023-05-13T00:00:43.838Z,9.85
2023-05-13T00:03:13.424Z,11.75
2023-05-13T00:05:41.835Z,12.43
2023-05-13T00:08:10.031Z,12.18
2023-05-13T00:10:38.519Z,11.55
2023-05-13T00:13:06.646Z,11.18
2023-05-13T00:15:34.934Z,11.07
2023-05-13T00:18:03.081Z,10.98
2023-05-13T00:20:32.609Z,11.27
2023-05-13T00:23:00.791Z,11.15
2023-05-13T00:25:28.978Z,10.68
2023-05-13T00:27:57.050Z,10.20
2023-05-13T00:30:25.451Z,10.02
2023-05-13T00:32:53.759Z,9.75
2023-05-13T00:35:21.960Z,9.93
2023-05-13T00:37:52.198Z,9.73
2023-05-13T00:40:23.232Z,10.30
2023-05-13T00:42:52.080Z,9.55
2023-05-13T00:45:21.670Z,9.80
2023-05-13T00:47:50.668Z,9.82
2023-05-13T00:50:19.070Z,9.40
2023-05-13T00:52:51.279Z,10.73
2023-05-13T00:55:20.822Z,9.45
2023-05-13T00:57:48.867Z,9.65
2023-05-13T01:00:17.678Z,10.00
2023-05-13T01:02:52.172Z,9.70
2023-05-13T01:05:30.838Z,9.88
2023-05-13T01:08:08.992Z,10.23
2023-05-13T01:10:43.918Z,9.98
2023-05-13T01:13:16.300Z,10.10
2023-05-13T01:15:52.763Z,10.43
2023-05-13T01:18:24.957Z,9.55
2023-05-13T01:20:53.269Z,10.15
2023-05-13T01:23:22.725Z,10.85
2023-05-13T01:25:51.052Z,10.15
2023-05-13T01:28:19.580Z,10.50
2023-05-13T01:30:52.258Z,10.38
2023-05-13T01:33:20.816Z,9.88
2023-05-13T01:35:49.416Z,10.40
2023-05-13T01:38:19.789Z,10.50
2023-05-13T01:40:53.005Z,10.50
2023-05-13T01:43:21.213Z,10.48
2023-05-13T01:45:49.276Z,11.27
2023-05-13T01:48:18.699Z,10.73
2023-05-13T01:50:49.081Z,10.93
2023-05-13T01:53:17.569Z,11.07
2023-05-13T01:55:46.326Z,10.73
2023-05-13T01:58:16.254Z,11.48
2023-05-13T02:00:44.478Z,10.02
2023-05-13T02:03:13.103Z,10.90
2023-05-13T02:05:41.274Z,11.00
2023-05-13T02:08:10.279Z,11.68
2023-05-13T02:10:40.313Z,10.95
2023-05-13T02:13:08.521Z,10.95
2023-05-13T02:15:38.232Z,10.85
2023-05-13T02:18:06.652Z,11.02
2023-05-13T02:20:34.784Z,10.98
2023-05-13T02:23:03.002Z,11.40
2023-05-13T02:25:31.143Z,11.27
2023-05-13T02:28:01.141Z,11.20
2023-05-13T02:30:29.272Z,10.48
2023-05-13T02:32:59.242Z,11.48
2023-05-13T02:35:30.135Z,10.70
2023-05-13T02:38:00.378Z,11.23
2023-05-13T02:40:30.073Z,10.95
2023-05-13T02:42:59.058Z,10.90
2023-05-13T02:45:41.891Z,11.50
2023-05-13T02:48:12.596Z,10.60
2023-05-13T02:50:41.318Z,11.88
2023-05-13T02:53:11.310Z,11.50
2023-05-13T02:55:44.374Z,11.13
2023-05-13T02:58:12.691Z,11.40
2023-05-13T03:00:40.863Z,11.70
2023-05-13T03:03:09.168Z,12.07
2023-05-13T03:05:38.780Z,11.18
2023-05-13T03:08:06.978Z,11.88
2023-05-13T03:10:35.406Z,11.77
2023-05-13T03:13:03.604Z,11.30
2023-05-13T03:15:31.713Z,11.55
2023-05-13T03:18:00.550Z,11.05
2023-05-13T03:20:29.131Z,10.68
2023-05-13T03:22:58.956Z,12.32
2023-05-13T03:25:27.071Z,11.43
2023-05-13T03:27:59.397Z,12.95
2023-05-13T03:30:32.002Z,12.30
2023-05-13T03:33:05.912Z,13.02
2023-05-13T03:35:34.493Z,11.48
2023-05-13T03:38:03.961Z,12.77
2023-05-13T03:40:34.052Z,13.35
2023-05-13T03:43:02.118Z,12.23
2023-05-13T03:45:31.332Z,12.38
2023-05-13T03:48:04.179Z,12.00
2023-05-13T03:50:32.397Z,12.15
2023-05-13T03:53:00.535Z,13.13
2023-05-13T03:55:30.142Z,12.45
2023-05-13T03:57:58.267Z,13.00
2023-05-13T04:00:26.868Z,12.48
2023-05-13T04:02:55.124Z,13.25
2023-05-13T04:05:23.394Z,13.13
2023-05-13T04:07:52.052Z,13.95
2023-05-13T04:10:20.766Z,13.80
2023-05-13T04:12:50.482Z,14.43
2023-05-13T04:15:18.611Z,12.85
2023-05-13T04:17:48.165Z,14.20
2023-05-13T04:20:16.562Z,14.40
2023-05-13T04:22:44.887Z,13.80
2023-05-13T04:25:13.448Z,14.57
2023-05-13T04:27:42.780Z,14.77
2023-05-13T04:30:20.969Z,14.45
2023-05-13T04:32:49.476Z,13.93
2023-05-13T04:35:17.925Z,14.27
2023-05-13T04:37:49.717Z,13.90
2023-05-13T04:40:19.996Z,13.57
2023-05-13T04:42:54.579Z,13.23
2023-05-13T04:45:29.615Z,12.85
2023-05-13T04:47:58.728Z,13.23
2023-05-13T04:50:27.125Z,13.73
2023-05-13T04:52:56.714Z,12.82
2023-05-13T04:55:27.551Z,13.38
2023-05-13T04:57:57.842Z,13.82
2023-05-13T05:00:26.259Z,13.90
2023-05-13T05:02:56.728Z,12.93
2023-05-13T05:05:25.575Z,13.32
2023-05-13T05:07:54.220Z,13.38
2023-05-13T05:10:23.342Z,13.15
2023-05-13T05:12:59.491Z,12.32
2023-05-13T05:15:27.689Z,12.27
2023-05-13T05:17:59.489Z,12.50
2023-05-13T05:20:28.246Z,12.15
2023-05-13T05:22:59.773Z,12.05
2023-05-13T05:25:30.101Z,12.52
2023-05-13T05:27:58.335Z,11.80
2023-05-13T05:30:26.777Z,11.40
2023-05-13T05:33:05.233Z,12.18
2023-05-13T05:35:37.066Z,11.15
2023-05-13T05:38:07.903Z,10.73
2023-05-13T05:40:37.372Z,10.70
2023-05-13T05:43:05.812Z,9.95
2023-05-13T05:45:35.679Z,10.55
2023-05-13T05:48:09.271Z,10.07
2023-05-13T05:50:38.024Z,9.55
2023-05-13T05:53:09.154Z,10.00
2023-05-13T05:55:40.020Z,8.60
2023-05-13T05:58:10.900Z,10.38
2023-05-13T06:00:40.098Z,9.85
2023-05-13T06:03:09.973Z,10.10
2023-05-13T06:05:38.263Z,9.70
2023-05-13T06:08:07.520Z,8.88
2023-05-13T06:10:36.049Z,9.38
2023-05-13T06:13:04.935Z,8.25
2023-05-13T06:15:33.184Z,8.90
2023-05-13T06:18:04.746Z,8.57
2023-05-13T06:20:36.585Z,9.38
2023-05-13T06:23:04.691Z,9.15
2023-05-13T06:25:32.965Z,7.53
2023-05-13T06:28:03.042Z,8.10
2023-05-13T06:30:31.279Z,8.95
2023-05-13T06:33:02.245Z,7.70
2023-05-13T06:35:31.696Z,6.97
2023-05-13T06:38:03.095Z,7.45
2023-05-13T06:40:31.779Z,7.05
2023-05-13T06:42:59.852Z,7.55
2023-05-13T06:45:33.198Z,7.00
2023-05-13T06:48:01.944Z,7.32
2023-05-13T06:50:30.097Z,6.75
2023-05-13T06:52:58.734Z,6.60
2023-05-13T06:55:28.141Z,6.75
2023-05-13T06:57:56.368Z,6.30
2023-05-13T07:00:25.039Z,5.72
2023-05-13T07:02:53.190Z,5.60
2023-05-13T07:05:21.346Z,4.95
2023-05-13T07:07:53.628Z,4.60
2023-05-13T07:10:22.094Z,4.60
2023-05-13T07:12:51.844Z,4.10
2023-05-13T07:15:20.644Z,4.05
2023-05-13T07:17:48.980Z,4.10
2023-05-13T07:20:22.269Z,3.72
2023-05-13T07:22:51.162Z,4.40
2023-05-13T07:25:19.582Z,4.20
2023-05-13T07:27:47.988Z,4.07
2023-05-13T07:30:17.716Z,4.32
2023-05-13T07:32:45.894Z,4.55
2023-05-13T07:35:14.557Z,3.88
2023-05-13T07:37:42.692Z,4.50
2023-05-13T07:40:11.400Z,4.18
2023-05-13T07:42:40.173Z,3.97
2023-05-13T07:45:09.383Z,3.90
2023-05-13T07:47:39.024Z,3.85
2023-05-13T07:50:08.315Z,4.22
2023-05-13T07:52:36.528Z,3.70
2023-05-13T07:55:05.676Z,4.38
2023-05-13T07:57:33.856Z,4.40
2023-05-13T08:00:01.953Z,4.68
2023-05-13T08:02:34.786Z,4.00
2023-05-13T08:05:04.486Z,4.43
2023-05-13T08:07:32.786Z,3.97
2023-05-13T08:10:01.078Z,3.90
2023-05-13T08:12:29.161Z,3.92
2023-05-13T08:14:57.671Z,4.05
2023-05-13T08:17:25.968Z,3.45
2023-05-13T08:19:54.350Z,3.65
2023-05-13T08:22:23.774Z,4.15
2023-05-13T08:24:52.143Z,2.90
2023-05-13T08:27:20.213Z,3.20
2023-05-13T08:29:48.441Z,2.67
2023-05-13T08:32:16.591Z,2.70
2023-05-13T08:34:44.800Z,2.55
2023-05-13T08:37:12.978Z,2.90
2023-05-13T08:39:42.701Z,3.10
2023-05-13T08:42:12.532Z,3.00
2023-05-13T08:44:43.905Z,2.67
2023-05-13T08:47:19.766Z,3.20
2023-05-13T08:49:48.497Z,2.80
2023-05-13T08:52:16.687Z,2.90
2023-05-13T08:54:47.594Z,3.05
2023-05-13T08:57:16.029Z,2.70
2023-05-13T08:59:44.422Z,2.42
2023-05-13T09:02:13.356Z,2.55
2023-05-13T09:04:44.559Z,2.28
2023-05-13T09:07:12.869Z,2.55
2023-05-13T09:09:41.232Z,2.17
2023-05-13T09:12:10.930Z,2.20
2023-05-13T09:14:39.985Z,2.40
2023-05-13T09:17:08.620Z,2.42
2023-05-13T09:19:37.468Z,2.22
2023-05-13T09:22:05.721Z,2.78
2023-05-13T09:24:33.782Z,2.80
2023-05-13T09:27:02.023Z,2.50
2023-05-13T09:29:31.506Z,2.00
2023-05-13T09:32:03.934Z,1.80
2023-05-13T09:34:34.363Z,2.15
2023-05-13T09:37:04.449Z,1.70
2023-05-13T09:39:34.343Z,2.00
2023-05-13T09:42:05.118Z,2.28
2023-05-13T09:44:35.461Z,2.28
2023-05-13T09:47:04.555Z,2.15
2023-05-13T09:49:33.147Z,2.40
2023-05-13T09:52:01.279Z,1.98
2023-05-13T09:54:36.480Z,2.70
2023-05-13T09:57:05.741Z,2.30
2023-05-13T09:59:35.664Z,2.28
2023-05-13T10:02:06.756Z,2.25
2023-05-13T10:04:35.181Z,2.70
2023-05-13T10:07:05.251Z,2.75
2023-05-13T10:09:37.691Z,2.55
2023-05-13T10:12:08.843Z,2.50
2023-05-13T10:14:39.421Z,2.88
2023-05-13T10:17:09.286Z,2.30
2023-05-13T10:19:38.143Z,2.80
2023-05-13T10:22:07.650Z,3.00
2023-05-13T10:24:38.617Z,2.90
2023-05-13T10:27:08.484Z,2.63
2023-05-13T10:29:40.634Z,2.58
2023-05-13T10:32:11.109Z,2.75
2023-05-13T10:34:40.446Z,2.75
2023-05-13T10:37:37.450Z,2.38
2023-05-13T10:40:41.911Z,2.20
2023-05-13T10:43:14.440Z,2.60
2023-05-13T10:45:47.393Z,2.50
2023-05-13T10:48:16.810Z,2.20
2023-05-13T10:50:55.748Z,2.55
2023-05-13T10:53:26.109Z,2.40
2023-05-13T10:55:56.393Z,2.53
2023-05-13T10:58:30.445Z,2.63
2023-05-13T11:03:57.298Z,2.17
2023-05-13T11:06:30.492Z,2.35
2023-05-13T11:08:58.650Z,2.30
2023-05-13T11:11:30.723Z,2.40
2023-05-13T11:14:09.072Z,2.28
2023-05-13T11:16:38.116Z,2.30
2023-05-13T11:19:20.024Z,2.53
2023-05-13T11:21:51.660Z,2.20
2023-05-13T11:24:21.785Z,2.80
2023-05-13T11:26:51.210Z,2.33
2023-05-13T11:29:30.671Z,2.17
2023-05-13T11:32:00.766Z,1.88
2023-05-13T11:34:31.476Z,2.28
2023-05-13T11:37:09.663Z,2.65
2023-05-13T11:39:41.272Z,2.35
2023-05-13T11:42:10.792Z,2.60
2023-05-13T11:44:46.842Z,2.20
2023-05-13T11:47:15.696Z,2.40
2023-05-13T11:49:46.457Z,2.40
2023-05-13T11:52:16.322Z,2.42
2023-05-13T11:54:49.208Z,2.50
2023-05-13T11:57:25.212Z,2.30
2023-05-13T11:59:58.626Z,2.40
2023-05-13T12:02:28.948Z,2.20
2023-05-13T12:05:01.918Z,2.20
2023-05-13T12:07:30.291Z,1.88
2023-05-13T12:09:59.705Z,2.00
2023-05-13T12:12:29.166Z,2.00
2023-05-13T12:14:59.760Z,2.05
2023-05-13T12:17:28.182Z,2.30
2023-05-13T12:20:08.316Z,2.25
2023-05-13T12:22:37.734Z,2.20
2023-05-13T12:25:34.226Z,2.03
2023-05-13T12:28:08.643Z,2.05
2023-05-13T12:30:37.386Z,1.98
2023-05-13T12:33:06.184Z,2.00
2023-05-13T12:35:35.796Z,2.28
2023-05-13T12:38:05.494Z,2.40
2023-05-13T12:40:34.209Z,2.13
2023-05-13T12:43:03.283Z,2.30
2023-05-13T12:45:33.005Z,2.10
2023-05-13T12:48:01.830Z,2.10
2023-05-13T12:50:30.056Z,2.58
2023-05-13T12:53:00.708Z,1.92
2023-05-13T12:55:28.928Z,1.60
2023-05-13T12:57:57.821Z,2.10
2023-05-13T13:00:26.732Z,1.75
2023-05-13T13:02:55.068Z,1.98
2023-05-13T13:05:24.516Z,2.13
2023-05-13T13:07:52.951Z,2.05
2023-05-13T13:10:22.534Z,2.15
2023-05-13T13:12:50.797Z,2.20
2023-05-13T13:15:19.310Z,2.08
2023-05-13T13:17:47.519Z,1.85
2023-05-13T13:20:15.797Z,2.30
2023-05-13T13:22:44.018Z,2.00
2023-05-13T13:25:14.695Z,2.20
2023-05-13T13:27:44.532Z,2.00
2023-05-13T13:30:14.555Z,2.00
2023-05-13T13:32:43.390Z,2.00
2023-05-13T13:35:14.979Z,2.15
2023-05-13T13:37:43.221Z,1.88
2023-05-13T13:40:14.066Z,2.17
2023-05-13T13:42:45.149Z,2.20
2023-05-13T13:45:14.056Z,2.22
2023-05-13T13:47:46.223Z,2.10
2023-05-13T13:50:14.573Z,1.83
2023-05-13T13:52:43.025Z,2.03
2023-05-13T13:55:12.493Z,2.28
2023-05-13T13:57:40.578Z,2.05
2023-05-13T14:00:11.362Z,2.22
2023-05-13T14:02:39.609Z,2.10
2023-05-13T14:05:08.900Z,1.90
2023-05-13T14:07:37.944Z,1.88
2023-05-13T14:10:07.141Z,2.00
2023-05-13T14:12:35.939Z,1.90
2023-05-13T14:15:04.282Z,1.75
2023-05-13T14:17:34.086Z,1.58
2023-05-13T14:20:02.402Z,1.85
2023-05-13T14:22:30.574Z,1.92
2023-05-13T14:24:59.013Z,2.03
2023-05-13T14:27:27.246Z,2.00
2023-05-13T14:29:55.523Z,2.20
2023-05-13T14:32:23.756Z,2.05
2023-05-13T14:34:53.269Z,1.92
2023-05-13T14:37:21.380Z,2.28
2023-05-13T14:39:50.203Z,2.00
2023-05-13T14:42:21.283Z,1.75
2023-05-13T14:44:49.450Z,2.38
2023-05-13T14:47:17.533Z,1.98
2023-05-13T14:49:45.781Z,2.08
2023-05-13T14:52:15.244Z,2.17
2023-05-13T14:54:43.640Z,1.80
2023-05-13T14:57:11.996Z,2.50
2023-05-13T14:59:40.147Z,1.85
2023-05-13T15:02:10.913Z,2.30
2023-05-13T15:04:39.152Z,2.17
2023-05-13T15:07:08.543Z,2.03
2023-05-13T15:09:39.962Z,2.33
2023-05-13T15:12:09.342Z,2.05
2023-05-13T15:14:37.499Z,2.17
2023-05-13T15:17:10.806Z,1.85
2023-05-13T15:19:39.713Z,1.92
2023-05-13T15:22:07.795Z,2.17
2023-05-13T15:24:38.918Z,2.03
2023-05-13T15:27:07.405Z,2.30
2023-05-13T15:29:35.517Z,2.40
2023-05-13T15:32:03.684Z,2.13
2023-05-13T15:34:31.778Z,2.03
2023-05-13T15:36:59.977Z,2.00
2023-05-13T15:39:28.394Z,1.95
2023-05-13T15:41:57.916Z,2.25
2023-05-13T15:44:27.052Z,1.90
2023-05-13T15:46:55.279Z,2.10
2023-05-13T15:49:23.437Z,1.92
2023-05-13T15:51:54.486Z,2.08
2023-05-13T15:54:22.683Z,1.65
2023-05-13T15:56:50.903Z,1.95
2023-05-13T15:59:20.614Z,1.80
2023-05-13T16:01:49.079Z,1.70
2023-05-13T16:04:17.850Z,2.08
2023-05-13T16:06:46.016Z,2.00
2023-05-13T16:09:14.399Z,2.40
2023-05-13T16:11:43.532Z,2.30
2023-05-13T16:14:11.727Z,2.50
2023-05-13T16:16:41.533Z,2.50
2023-05-13T16:19:09.882Z,3.00
2023-05-13T16:21:42.372Z,1.90
2023-05-13T16:24:11.325Z,2.28
2023-05-13T16:26:39.543Z,2.30
2023-05-13T16:29:07.922Z,2.33
2023-05-13T16:31:36.155Z,2.00
2023-05-13T16:34:05.715Z,2.00
2023-05-13T16:36:33.808Z,2.60
2023-05-13T16:39:01.982Z,2.10
2023-05-13T16:41:30.070Z,2.22
2023-05-13T16:43:58.569Z,2.22
2023-05-13T16:46:26.681Z,2.17
2023-05-13T16:48:56.176Z,2.28
2023-05-13T16:51:26.797Z,2.13
2023-05-13T16:53:54.888Z,2.17
2023-05-13T16:56:22.997Z,2.00
2023-05-13T16:58:51.114Z,2.40
2023-05-13T17:01:19.405Z,2.03
2023-05-13T17:03:47.530Z,1.90
2023-05-13T17:06:15.787Z,2.42
2023-05-13T17:08:45.243Z,2.33
2023-05-13T17:11:16.786Z,2.55
2023-05-13T17:13:45.068Z,2.03
2023-05-13T17:16:13.091Z,1.75
2023-05-13T17:18:41.433Z,1.85
2023-05-13T17:21:09.742Z,1.70
2023-05-13T17:23:37.922Z,2.25
2023-05-13T17:26:07.568Z,2.20
2023-05-13T17:28:35.810Z,1.70
2023-05-13T17:31:04.148Z,2.00
2023-05-13T17:33:32.548Z,1.92
2023-05-13T17:36:00.839Z,1.92
2023-05-13T17:38:29.078Z,3.22
2023-05-13T17:40:57.381Z,2.63
2023-05-13T17:43:27.073Z,2.22
2023-05-13T17:45:55.212Z,2.30
2023-05-13T17:48:23.846Z,1.95
2023-05-13T17:50:52.895Z,2.15
2023-05-13T17:53:21.305Z,2.10
2023-05-13T17:55:49.487Z,2.20
2023-05-13T17:58:18.010Z,2.20
2023-05-13T18:00:48.277Z,1.92
2023-05-13T18:03:16.693Z,2.50
2023-05-13T18:05:44.903Z,2.30
2023-05-13T18:08:13.080Z,2.05
2023-05-13T18:10:41.216Z,2.40
2023-05-13T18:13:09.354Z,2.70
2023-05-13T18:15:37.435Z,3.50
2023-05-13T18:18:07.721Z,2.83
2023-05-13T18:20:36.285Z,2.17
2023-05-13T18:23:04.421Z,2.40
2023-05-13T18:25:33.612Z,2.50
2023-05-13T18:28:04.653Z,2.58
2023-05-13T18:30:32.790Z,2.78
2023-05-13T18:33:01.070Z,2.90
2023-05-13T18:35:30.744Z,2.90
2023-05-13T18:37:58.905Z,2.92
2023-05-13T18:40:27.024Z,3.33
2023-05-13T18:42:55.162Z,3.40
2023-05-13T18:45:23.311Z,3.45
2023-05-13T18:47:51.655Z,2.90
2023-05-13T18:50:19.978Z,3.88
2023-05-13T18:52:49.563Z,2.90
2023-05-13T18:55:17.936Z,2.95
2023-05-13T18:57:46.473Z,3.20
2023-05-13T19:00:15.372Z,3.25
2023-05-13T19:02:43.711Z,2.88
2023-05-13T19:05:12.474Z,3.28
2023-05-13T19:07:40.702Z,2.90
2023-05-13T19:10:10.599Z,3.40
2023-05-13T19:12:38.741Z,3.33
2023-05-13T19:15:07.707Z,3.30
2023-05-13T19:17:39.001Z,3.33
2023-05-13T19:20:10.081Z,3.20
2023-05-13T19:22:38.610Z,3.08
2023-05-13T19:25:07.378Z,3.30
2023-05-13T19:27:38.014Z,3.30
2023-05-13T19:30:07.349Z,4.25
2023-05-13T19:32:36.165Z,4.75
2023-05-13T19:35:04.735Z,5.22
2023-05-13T19:37:32.829Z,5.13
2023-05-13T19:40:00.997Z,3.03
2023-05-13T19:42:29.098Z,5.32
2023-05-13T19:44:58.787Z,4.75
2023-05-13T19:47:27.783Z,5.43
2023-05-13T19:49:55.949Z,4.90
2023-05-13T19:52:24.062Z,5.38
2023-05-13T19:54:52.826Z,6.20
2023-05-13T19:57:21.296Z,6.60
2023-05-13T19:59:49.878Z,6.82
2023-05-13T20:02:19.355Z,7.40
2023-05-13T20:04:47.796Z,7.50
2023-05-13T20:07:15.983Z,9.00
2023-05-13T20:09:44.227Z,8.02
2023-05-13T20:12:12.684Z,8.65
2023-05-13T20:14:45.269Z,8.60
2023-05-13T20:17:21.541Z,8.23
2023-05-13T20:19:50.981Z,7.68
2023-05-13T20:22:20.217Z,7.70
2023-05-13T20:24:48.885Z,7.60
2023-05-13T20:27:18.489Z,7.40
2023-05-13T20:29:47.951Z,7.93
2023-05-13T20:32:18.447Z,8.05
2023-05-13T20:34:48.117Z,7.72
2023-05-13T20:37:16.831Z,8.07
2023-05-13T20:39:45.176Z,8.15
2023-05-13T20:42:13.289Z,8.70
2023-05-13T20:44:41.628Z,8.82
2023-05-13T20:47:10.331Z,8.07
2023-05-13T20:49:39.822Z,8.20
2023-05-13T20:52:09.498Z,9.18
2023-05-13T20:54:37.849Z,8.60
2023-05-13T20:57:06.802Z,8.68
2023-05-13T20:59:35.132Z,9.57
2023-05-13T21:02:03.337Z,8.82
2023-05-13T21:04:31.564Z,8.68
2023-05-13T21:06:59.651Z,8.63
2023-05-13T21:09:29.205Z,8.35
2023-05-13T21:11:57.312Z,7.93
2023-05-13T21:14:25.609Z,7.75
2023-05-13T21:16:53.728Z,8.55
2023-05-13T21:19:23.213Z,8.43
2023-05-13T21:21:51.760Z,7.93
2023-05-13T21:24:20.498Z,9.43
2023-05-13T21:26:50.070Z,7.47
2023-05-13T21:29:18.967Z,7.40
2023-05-13T21:31:47.909Z,7.68
2023-05-13T21:34:16.207Z,7.45
2023-05-13T21:36:44.512Z,8.30
2023-05-13T21:39:12.628Z,8.02
2023-05-13T21:41:41.438Z,8.18
2023-05-13T21:44:11.318Z,8.52
2023-05-13T21:46:39.453Z,8.50
2023-05-13T21:49:07.828Z,8.80
2023-05-13T21:51:35.909Z,8.68
2023-05-13T21:54:04.233Z,8.50
2023-05-13T21:56:32.471Z,8.00
2023-05-13T21:59:00.601Z,8.57
2023-05-13T22:01:30.079Z,8.35
2023-05-13T22:03:58.339Z,8.52
2023-05-13T22:06:26.485Z,8.35
2023-05-13T22:08:54.659Z,9.40
2023-05-13T22:11:23.368Z,8.38
2023-05-13T22:13:51.654Z,8.23
2023-05-13T22:16:19.884Z,9.68
2023-05-13T22:18:49.977Z,8.68
2023-05-13T22:21:18.237Z,8.85
2023-05-13T22:23:46.462Z,9.80
2023-05-13T22:26:14.611Z,9.23
2023-05-13T22:28:42.781Z,9.27
2023-05-13T22:31:10.882Z,9.38
2023-05-13T22:33:39.070Z,9.52
2023-05-13T22:36:08.857Z,8.40
2023-05-13T22:38:37.465Z,9.02
2023-05-13T22:41:05.929Z,9.50
2023-05-13T22:43:34.333Z,9.02
2023-05-13T22:46:02.502Z,8.95
2023-05-13T22:48:30.935Z,8.68
2023-05-13T22:50:59.173Z,8.75
2023-05-13T22:53:29.224Z,9.20
2023-05-13T22:55:57.268Z,9.55
2023-05-13T22:58:25.494Z,8.70
2023-05-13T23:00:53.700Z,9.13
2023-05-13T23:03:22.278Z,8.55
2023-05-13T23:05:51.502Z,9.02
2023-05-13T23:08:19.684Z,9.52
2023-05-13T23:10:49.387Z,9.25
2023-05-13T23:13:18.972Z,9.23
2023-05-13T23:15:47.135Z,9.32
2023-05-13T23:18:15.721Z,9.15
2023-05-13T23:20:43.856Z,9.50
2023-05-13T23:23:12.024Z,10.02
2023-05-13T23:25:40.150Z,9.45
2023-05-13T23:28:09.618Z,9.57
2023-05-13T23:30:37.709Z,10.23
2023-05-13T23:33:05.912Z,10.20
2023-05-13T23:35:34.022Z,10.35
2023-05-13T23:38:02.478Z,9.82
2023-05-13T23:40:30.655Z,9.43
2023-05-13T23:42:58.775Z,9.88
2023-05-13T23:45:28.238Z,9.85
2023-05-13T23:47:56.495Z,10.25
2023-05-13T23:50:25.067Z,9.68
2023-05-13T23:52:53.706Z,10.60
2023-05-13T23:55:22.236Z,10.13
2023-05-13T23:57:50.431Z,10.25
